Latest Weather Observations for Point Fawcett

IDD60801

Issued at 9:31 pm CST Sunday 21 December 2014 (issued every 30 minutes, with the page automatically refreshed every 10 minutes)

About weather observations | Map of weather stations | Latest weather observations for NT | Other Formats
Station Details ID: 200731 Name: POINT FAWCETT Lat: -11.76 Lon: 130.03 Height: 6.5 m
Data from the previous 72 hours. | See also: Recent months at Point Fawcett
Date/Time
CST
Temp
°C
App
Temp
°C
Dew
Point
Rel
Hum
%
Delta-T
°C
Wind Press
QNH
hPa
Press
MSL
hPa
Rain
since 9 am
mm
Dir
 
Spd
km/h
Gust
km/h
Spd
kts
Gust
kts
21/09:30pm 28.0 32.9 24.6 82 2.4 SE 7 9 4 5 1007.5 - -
21/09:00pm 28.6 33.1 24.6 79 2.8 SE 9 11 5 6 1007.0 1006.9 -
21/08:30pm 30.2 35.1 25.3 75 3.5 W 9 11 5 6 1006.6 - -
21/08:00pm 30.4 35.4 24.8 72 3.9 WNW 7 11 4 6 1006.3 - -
21/07:30pm 30.6 34.8 24.7 71 4.1 WNW 11 15 6 8 1006.1 - -
21/07:00pm 30.8 34.8 24.4 68 4.5 WNW 11 15 6 8 1005.7 - -
21/06:30pm 31.1 35.6 25.2 71 4.2 WNW 11 15 6 8 1005.1 - -
21/06:00pm 31.8 36.1 24.9 67 4.9 NW 11 15 6 8 1004.9 1004.8 -
21/05:30pm 31.7 35.9 24.8 67 4.9 WNW 11 15 6 8 1004.9 - -
21/05:00pm 32.1 36.4 24.9 65 5.1 NW 11 15 6 8 1004.9 - -
21/04:30pm 32.2 36.4 24.8 65 5.2 NNW 11 13 6 7 1005.2 - -
21/04:00pm 32.5 37.1 24.8 64 5.4 WNW 9 11 5 6 1005.2 - -
21/03:30pm 32.6 37.6 25.4 66 5.1 WNW 9 11 5 6 1005.6 - -
21/03:00pm 32.9 37.9 25.4 64 5.3 W 9 13 5 7 1006.0 1005.9 -
21/02:30pm 32.4 37.3 24.7 64 5.4 WSW 7 13 4 7 1006.2 - -
21/02:00pm 33.4 38.4 25.4 63 5.7 WSW 9 15 5 8 1006.6 - -
21/01:30pm 33.3 37.9 24.7 60 6.1 WSW 9 15 5 8 1007.2 - -
21/01:00pm 33.9 37.8 24.2 57 6.8 WNW 11 13 6 7 1007.7 - -
21/12:30pm 34.0 38.0 23.7 55 7.2 NNW 9 13 5 7 1008.1 - -
21/12:00pm 32.9 37.8 25.2 64 5.5 NW 9 11 5 6 1008.6 1008.5 -
21/11:30am 32.3 37.6 25.9 69 4.6 NW 9 11 5 6 1009.0 - -
21/11:00am 32.0 36.9 25.3 67 4.7 W 9 15 5 8 1009.3 - -
21/10:30am 32.9 37.9 25.4 64 5.3 W 9 13 5 7 1009.6 - -
21/10:00am 32.6 37.7 24.6 62 5.6 SE 6 9 3 5 1009.6 - -
21/09:30am 32.0 37.8 25.8 69 4.4 E 6 9 3 5 1009.6 - -
21/09:00am 30.4 36.4 26.1 78 3.1 ENE 6 9 3 5 1009.3 1009.2 -
21/08:30am 29.2 36.7 26.6 86 1.9 CALM 0 0 0 0 1008.7 - -
21/08:00am 28.0 34.4 26.6 92 1.0 SE 6 6 3 3 1008.4 - -
21/07:30am 26.9 32.3 25.5 92 1.0 SE 7 7 4 4 1008.0 - -
21/07:00am 26.2 31.1 24.4 90 1.2 ESE 6 7 3 4 1007.9 - -
21/06:30am 25.9 30.6 23.9 89 1.4 SE 6 7 3 4 1007.6 - -
21/06:00am 26.4 32.2 23.9 86 1.7 CALM 0 0 0 0 1007.3 1007.2 -
21/05:30am 28.3 33.4 24.9 82 2.4 NW 7 9 4 5 1006.9 - -
21/05:00am 28.8 33.8 25.4 82 2.4 NNW 9 13 5 7 1006.6 - -
21/04:30am 29.0 33.4 25.6 82 2.4 NW 13 15 7 8 1006.5 - -
21/04:00am 28.8 33.5 25.6 83 2.3 NW 11 15 6 8 1006.4 - -
21/03:30am 28.2 32.9 25.0 83 2.2 WNW 9 11 5 6 1006.5 - -
21/03:00am 28.2 33.3 25.0 83 2.2 NW 7 11 4 6 1006.8 1006.7 -
21/02:30am 28.9 33.8 25.3 81 2.5 WNW 9 13 5 7 1007.0 - -
21/02:00am 28.7 33.5 25.1 81 2.5 WNW 9 13 5 7 1007.3 - -
21/01:30am 29.0 33.6 25.4 81 2.5 W 11 13 6 7 1007.5 - -
21/01:00am 29.2 33.7 25.2 79 2.8 W 11 15 6 8 1008.0 - -
21/12:30am 29.5 34.1 25.3 78 3.0 WSW 11 15 6 8 1008.4 - -
21/12:00am 29.7 33.8 25.2 77 3.2 WSW 13 17 7 9 1008.6 1008.5 -
 
Date/Time
CST
Temp
°C
App
Temp
°C
Dew
Point
Rel
Hum
%
Delta-T
°C
Wind Press
QNH
hPa
Press
MSL
hPa
Rain
since 9 am
mm
Dir
 
Spd
km/h
Gust
km/h
Spd
kts
Gust
kts
20/11:30pm 29.8 33.2 25.3 77 3.2 W 17 20 9 11 1008.9 - -
20/11:00pm 29.8 33.3 24.9 75 3.4 W 15 19 8 10 1008.9 - -
20/10:30pm 30.0 34.3 25.5 77 3.2 W 13 17 7 9 1008.9 - -
20/10:00pm 29.9 34.1 25.4 77 3.2 W 13 17 7 9 1008.6 - -
20/09:30pm 29.9 34.1 25.4 77 3.2 W 13 19 7 10 1008.2 - -
20/09:00pm 30.0 34.1 25.7 78 3.1 W 15 19 8 10 1007.8 1007.7 -
20/08:30pm 30.1 34.6 25.8 78 3.1 WNW 13 15 7 8 1007.2 - -
20/08:00pm 30.4 34.8 25.7 76 3.3 WNW 13 15 7 8 1006.7 - -
20/07:30pm 30.7 35.4 25.5 74 3.7 NW 11 13 6 7 1006.0 - -
20/07:00pm 31.2 35.8 25.3 71 4.2 NNW 11 15 6 8 1005.8 - -
20/06:30pm 32.5 36.9 25.6 67 4.9 N 13 17 7 9 1005.5 - -
20/06:00pm 33.3 38.2 25.8 65 5.4 N 11 15 6 8 1005.0 1004.9 -
20/05:30pm 33.4 38.3 25.9 65 5.4 N 11 15 6 8 1005.0 - -
20/05:00pm 32.5 37.7 26.3 70 4.4 NNW 11 13 6 7 1005.0 - -
20/04:30pm 32.3 37.6 25.9 69 4.6 NNW 9 11 5 6 1004.9 - -
20/04:00pm 32.1 37.5 26.6 72 4.0 NW 11 13 6 7 1005.2 - -
20/03:30pm 32.4 37.8 26.0 69 4.6 NW 9 11 5 6 1005.4 - -
20/03:00pm 32.4 37.2 25.7 68 4.8 NNW 11 13 6 7 1005.8 1005.7 -
20/02:30pm 33.1 38.2 25.6 64 5.3 WNW 9 13 5 7 1006.2 - -
20/02:00pm 33.9 39.0 25.6 62 5.9 N 9 11 5 6 1006.5 - -
20/01:30pm 33.2 38.1 24.4 60 6.2 ESE 6 11 3 6 1006.8 - -
20/01:00pm 32.6 37.5 24.6 62 5.6 E 7 13 4 7 1007.3 - -
20/12:30pm 32.0 36.6 24.1 63 5.5 SE 7 11 4 6 1007.9 - -
20/12:00pm 32.3 36.8 24.6 64 5.4 SSE 9 13 5 7 1008.5 1008.4 -
20/11:30am 32.9 37.0 24.6 61 5.8 ESE 11 17 6 9 1008.8 - -
20/11:00am 32.6 36.7 24.6 62 5.6 SSW 11 17 6 9 1009.3 - -
20/10:30am 31.9 35.8 24.2 63 5.4 S 11 20 6 11 1009.8 - -
20/10:00am 30.7 34.0 23.9 67 4.7 S 13 20 7 11 1009.9 - -
20/09:30am 30.0 34.4 25.1 75 3.4 S 11 17 6 9 1010.2 - -
20/09:00am 29.6 34.5 25.3 77 3.0 S 9 15 5 8 1010.2 1010.1 -
20/08:30am 28.6 33.6 24.8 80 2.7 S 7 13 4 7 1009.9 - -
20/08:00am 28.1 32.0 24.3 80 2.6 S 11 17 6 9 1009.7 - -
20/07:30am 28.7 32.4 24.5 78 2.9 S 13 24 7 13 1009.8 - -
20/07:00am 29.4 34.1 25.6 80 2.7 SSW 11 17 6 9 1009.7 - -
20/06:30am 29.7 34.4 26.1 81 2.6 WSW 13 22 7 12 1009.3 - -
20/06:00am 29.8 33.9 25.8 79 2.8 W 15 20 8 11 1008.7 1008.6 -
20/05:30am 29.9 33.6 26.3 81 2.6 W 19 24 10 13 1008.2 - -
20/05:00am 29.8 33.9 26.4 82 2.4 WNW 17 20 9 11 1007.7 - -
20/04:30am 29.9 34.3 26.3 81 2.6 WNW 15 20 8 11 1007.9 - -
20/04:00am 29.8 33.8 26.2 81 2.6 NW 17 20 9 11 1008.1 - -
20/03:30am 29.8 33.3 26.0 80 2.7 NW 19 24 10 13 1008.0 - -
20/03:00am 29.9 33.7 25.9 79 2.8 NW 17 20 9 11 1008.4 1008.3 -
20/02:30am 30.0 33.1 25.7 78 3.0 NW 20 22 11 12 1007.9 - -
20/02:00am 29.9 33.5 26.1 80 2.7 NW 19 22 10 12 1008.2 - -
20/01:30am 29.9 33.8 26.1 80 2.7 NW 17 20 9 11 1008.3 - -
20/01:00am 29.9 34.3 26.3 81 2.6 NW 15 19 8 10 1009.3 - -
20/12:30am 30.1 34.8 26.7 82 2.4 NW 15 19 8 10 1010.1 - -
20/12:00am 30.1 34.5 26.3 80 2.7 WNW 15 19 8 10 1010.3 1010.2 -
 
Date/Time
CST
Temp
°C
App
Temp
°C
Dew
Point
Rel
Hum
%
Delta-T
°C
Wind Press
QNH
hPa
Press
MSL
hPa
Rain
since 9 am
mm
Dir
 
Spd
km/h
Gust
km/h
Spd
kts
Gust
kts
19/11:30pm 30.2 35.1 26.4 80 2.7 WNW 13 15 7 8 1010.5 - -
19/11:00pm 30.2 35.1 26.4 80 2.7 NW 13 17 7 9 1010.3 - -
19/10:30pm 30.2 34.5 26.1 79 2.9 NW 15 19 8 10 1009.9 - -
19/10:00pm 30.1 34.5 26.3 80 2.7 NW 15 20 8 11 1009.7 - -
19/09:30pm 30.3 34.5 26.5 80 2.7 NW 17 20 9 11 1009.4 - -
19/09:00pm 30.3 34.9 26.5 80 2.7 NW 15 19 8 10 1009.0 1008.9 -
19/08:30pm 30.3 35.3 26.5 80 2.7 NW 13 17 7 9 1008.8 - -
19/08:00pm 30.3 35.1 26.2 79 2.9 NW 13 17 7 9 1008.6 - -
19/07:30pm 30.5 35.3 26.2 78 3.1 WNW 13 15 7 8 1008.1 - -
19/07:00pm 30.7 35.8 26.2 77 3.2 WNW 11 15 6 8 1007.7 - -
19/06:30pm 31.1 35.8 26.1 75 3.6 WNW 13 17 7 9 1007.1 - -
19/06:00pm 31.5 35.9 26.3 74 3.7 WNW 15 19 8 10 1006.6 1006.5 -
19/05:30pm 32.8 37.8 26.6 70 4.5 NW 13 17 7 9 1006.5 - -
19/05:00pm 32.8 36.6 26.4 69 4.6 WNW 19 22 10 12 1006.5 - -
19/04:30pm 33.0 37.0 26.8 70 4.5 WNW 19 20 10 11 1006.8 - -
19/04:00pm 33.1 38.0 26.9 70 4.5 WNW 15 20 8 11 1007.0 - -
19/03:30pm 32.8 37.5 26.1 68 4.8 W 13 17 7 9 1007.3 - -
19/03:00pm 33.2 38.7 26.7 68 4.7 W 11 15 6 8 1007.8 1007.7 -
19/02:30pm 32.5 38.3 26.6 71 4.2 W 9 13 5 7 1008.3 - -
19/02:00pm 32.0 37.5 26.8 74 3.7 W 11 17 6 9 1008.7 - -
19/01:30pm 32.3 38.2 26.8 73 4.0 W 9 13 5 7 1009.0 - -
19/01:00pm 32.0 38.6 27.0 75 3.6 N 6 7 3 4 1009.5 - -
19/12:30pm 30.9 37.7 27.3 81 2.6 N 6 9 3 5 1009.9 - -
19/12:00pm 30.3 36.6 26.0 78 3.1 NNW 4 11 2 6 1010.2 1010.1 -
19/11:30am 31.9 37.4 26.2 72 4.1 W 9 13 5 7 1010.2 - -
19/11:00am 32.6 38.1 26.2 69 4.6 WNW 9 11 5 6 1010.5 - -
19/10:30am 32.5 38.1 26.3 70 4.4 NW 9 13 5 7 1010.7 - -
19/10:00am 32.3 38.1 26.1 70 4.4 WNW 7 11 4 6 1010.6 - -
19/09:30am 32.3 38.3 26.4 71 4.2 WNW 7 9 4 5 1010.6 - -
19/09:00am 31.9 37.9 26.0 71 4.2 NW 6 7 3 4 1010.6 1010.5 -
19/08:30am 31.1 36.4 25.9 74 3.7 WNW 9 11 5 6 1010.5 - -
19/08:00am 30.4 36.8 26.6 80 2.7 WNW 6 9 3 5 1010.2 - -
19/07:30am 29.2 35.0 26.6 86 1.9 WNW 9 11 5 6 1009.9 - -
19/07:00am 27.8 34.6 25.6 88 1.5 CALM 0 0 0 0 1010.0 - -
19/06:30am 27.9 33.1 25.1 85 2.0 WNW 7 11 4 6 1009.4 - -
19/06:00am 29.2 34.6 26.0 83 2.3 NW 9 11 5 6 1008.6 1008.5 -
19/05:30am 29.2 34.2 26.0 83 2.3 WNW 11 13 6 7 1008.4 - -
19/05:00am 29.4 34.3 25.8 81 2.6 WNW 11 13 6 7 1008.2 - -
19/04:30am 29.6 34.7 26.2 82 2.4 W 11 13 6 7 1008.2 - -
19/04:00am 29.6 34.7 26.2 82 2.4 W 11 15 6 8 1008.1 - -
19/03:30am 29.8 34.7 26.4 82 2.4 W 13 15 7 8 1008.3 - -
19/03:00am 29.8 34.4 26.0 80 2.7 W 13 15 7 8 1008.4 1008.3 -
19/02:30am 29.9 34.3 26.3 81 2.6 W 15 19 8 10 1008.7 - -
19/02:00am 30.0 34.9 26.4 81 2.6 W 13 19 7 10 1008.8 - -
19/01:30am 30.0 34.4 26.2 80 2.7 WNW 15 17 8 9 1008.9 - -
19/01:00am 30.1 35.1 26.5 81 2.6 WNW 13 17 7 9 1009.1 - -
19/12:30am 29.9 35.0 26.1 80 2.7 WNW 11 15 6 8 1009.3 - -
19/12:00am 29.6 34.5 25.8 80 2.7 WNW 11 13 6 7 1009.4 1009.3 -
 
Date/Time
CST
Temp
°C
App
Temp
°C
Dew
Point
Rel
Hum
%
Delta-T
°C
Wind Press
QNH
hPa
Press
MSL
hPa
Rain
since 9 am
mm
Dir
 
Spd
km/h
Gust
km/h
Spd
kts
Gust
kts
18/11:30pm 29.4 34.3 25.8 81 2.6 WNW 11 13 6 7 1009.4 - -
18/11:00pm 29.8 34.8 26.0 80 2.7 WNW 11 13 6 7 1009.1 - -
18/10:30pm 29.9 35.0 26.1 80 2.7 WNW 11 13 6 7 1008.9 - -
18/10:00pm 30.0 34.6 26.0 79 2.8 W 13 15 7 8 1008.8 - -

Other Formats:

Comma delimited format used in spreadsheet applications
http://www.bom.gov.au/fwo/IDD60801/IDD60801.94122.axf

JavaScript Object Notation format (JSON) in row-major order
http://www.bom.gov.au/fwo/IDD60801/IDD60801.94122.json